createdAt,value
2019-04-09T00:00:46.822Z,925.87
2019-04-09T00:02:18.629Z,925.91
2019-04-09T00:03:50.559Z,925.85
2019-04-09T00:05:23.125Z,925.92
2019-04-09T00:06:54.332Z,925.90
2019-04-09T00:08:25.884Z,925.95
2019-04-09T00:09:57.703Z,925.87
2019-04-09T00:11:30.422Z,925.92
2019-04-09T00:13:01.324Z,925.95
2019-04-09T00:14:33.938Z,925.96
2019-04-09T00:16:04.955Z,925.92
2019-04-09T00:17:36.766Z,926.01
2019-04-09T00:19:08.580Z,925.99
2019-04-09T00:20:41.364Z,926.02
2019-04-09T00:22:12.494Z,925.99
2019-04-09T00:23:44.022Z,926.03
2019-04-09T00:25:15.835Z,926.02
2019-04-09T00:26:52.180Z,926.00
2019-04-09T00:28:19.725Z,926.07
2019-04-09T00:29:51.278Z,926.06
2019-04-09T00:31:23.093Z,926.01
2019-04-09T00:32:54.905Z,926.13
2019-04-09T00:34:27.338Z,926.15
2019-04-09T00:35:59.234Z,926.09
2019-04-09T00:37:30.358Z,926.18
2019-04-09T00:39:02.162Z,926.19
2019-04-09T00:40:34.659Z,926.17
2019-04-09T00:42:06.749Z,926.23
2019-04-09T00:43:37.615Z,926.20
2019-04-09T00:45:09.417Z,926.17
2019-04-09T00:46:41.260Z,926.17
2019-04-09T00:48:13.665Z,926.16
2019-04-09T00:49:45.827Z,926.15
2019-04-09T00:51:16.880Z,926.10
2019-04-09T00:52:49.057Z,926.13
2019-04-09T00:54:21.214Z,926.14
2019-04-09T00:55:52.117Z,926.15
2019-04-09T00:57:24.833Z,926.15
2019-04-09T00:58:55.843Z,926.14
2019-04-09T01:00:28.365Z,926.21
2019-04-09T01:01:59.370Z,926.27
2019-04-09T01:03:31.187Z,926.21
2019-04-09T01:05:03.006Z,926.24
2019-04-09T01:06:35.678Z,926.29
2019-04-09T01:08:06.907Z,926.28
2019-04-09T01:09:38.440Z,926.31
2019-04-09T01:11:10.834Z,926.29
2019-04-09T01:12:43.007Z,926.33
2019-04-09T01:14:13.882Z,926.34
2019-04-09T01:15:45.699Z,926.34
2019-04-09T01:17:17.636Z,926.37
2019-04-09T01:18:50.060Z,926.39
2019-04-09T01:20:21.138Z,926.32
2019-04-09T01:21:54.034Z,926.35
2019-04-09T01:23:24.765Z,926.35
2019-04-09T01:24:57.591Z,926.39
2019-04-09T01:26:28.703Z,926.38
2019-04-09T01:28:00.207Z,926.38
2019-04-09T01:29:32.167Z,926.39
2019-04-09T01:31:03.837Z,926.36
2019-04-09T01:32:35.649Z,926.38
2019-04-09T01:34:07.463Z,926.38
2019-04-09T01:35:39.377Z,926.42
2019-04-09T01:37:11.091Z,926.41
2019-04-09T01:38:42.904Z,926.46
2019-04-09T01:40:15.063Z,926.40
2019-04-09T01:41:46.532Z,926.40
2019-04-09T01:43:18.346Z,926.39
2019-04-09T01:44:50.159Z,926.39
2019-04-09T01:46:22.507Z,926.35
2019-04-09T01:47:54.182Z,926.34
2019-04-09T01:49:25.746Z,926.30
2019-04-09T01:50:57.891Z,926.31
2019-04-09T01:52:29.230Z,926.31
2019-04-09T01:54:01.174Z,926.33
2019-04-09T01:55:33.543Z,926.27
2019-04-09T01:57:05.585Z,926.26
2019-04-09T01:58:37.504Z,926.29
2019-04-09T02:00:08.298Z,926.23
2019-04-09T02:01:40.112Z,926.18
2019-04-09T02:03:12.844Z,926.21
2019-04-09T02:04:44.361Z,926.19
2019-04-09T02:06:16.546Z,926.20
2019-04-09T02:07:47.369Z,926.17
2019-04-09T02:09:19.797Z,926.20
2019-04-09T02:10:51.799Z,926.16
2019-04-09T02:12:22.908Z,926.15
2019-04-09T02:13:54.625Z,926.19
2019-04-09T02:15:27.383Z,926.18
2019-04-09T02:16:58.258Z,926.10
2019-04-09T02:18:30.082Z,926.16
2019-04-09T02:20:02.982Z,926.14
2019-04-09T02:21:33.695Z,926.04
2019-04-09T02:23:05.509Z,926.04
2019-04-09T02:24:38.389Z,926.02
2019-04-09T02:26:10.286Z,926.05
2019-04-09T02:27:44.935Z,925.99
2019-04-09T02:29:12.764Z,926.01
2019-04-09T02:30:45.739Z,926.02
2019-04-09T02:32:17.985Z,925.99
2019-04-09T02:33:48.383Z,926.00
2019-04-09T02:35:21.259Z,926.01
2019-04-09T02:36:52.835Z,926.00
2019-04-09T02:38:23.649Z,926.00
2019-04-09T02:39:55.463Z,926.00
2019-04-09T02:41:27.525Z,925.96
2019-04-09T02:42:59.747Z,925.93
2019-04-09T02:44:31.026Z,925.97
2019-04-09T02:46:02.719Z,925.92
2019-04-09T02:47:34.532Z,925.98
2019-04-09T02:49:06.446Z,925.97
2019-04-09T02:50:38.159Z,925.93
2019-04-09T02:52:09.973Z,925.92
2019-04-09T02:53:42.361Z,925.96
2019-04-09T02:55:14.358Z,925.95
2019-04-09T02:56:45.415Z,925.91
2019-04-09T02:58:17.229Z,925.93
2019-04-09T02:59:49.081Z,925.91
2019-04-09T03:01:21.442Z,925.88
2019-04-09T03:02:52.687Z,925.84
2019-04-09T03:04:24.819Z,925.87
2019-04-09T03:05:56.299Z,925.85
2019-04-09T03:07:28.214Z,925.90
2019-04-09T03:08:59.948Z,925.91
2019-04-09T03:10:31.912Z,925.95
2019-04-09T03:12:03.554Z,925.92
2019-04-09T03:13:35.369Z,925.97
2019-04-09T03:15:07.256Z,925.95
2019-04-09T03:16:39.041Z,925.96
2019-04-09T03:18:11.084Z,925.95
2019-04-09T03:19:43.248Z,925.91
2019-04-09T03:21:15.287Z,925.87
2019-04-09T03:22:46.252Z,925.86
2019-04-09T03:24:18.565Z,925.82
2019-04-09T03:25:49.980Z,925.82
2019-04-09T03:27:21.694Z,925.78
2019-04-09T03:28:53.520Z,925.78
2019-04-09T03:30:25.323Z,925.83
2019-04-09T03:31:58.574Z,925.79
2019-04-09T03:33:29.552Z,925.79
2019-04-09T03:35:00.851Z,925.78
2019-04-09T03:36:32.579Z,925.77
2019-04-09T03:38:04.396Z,925.78
2019-04-09T03:39:36.207Z,925.76
2019-04-09T03:41:08.025Z,925.76
2019-04-09T03:42:39.838Z,925.69
2019-04-09T03:44:11.751Z,925.72
2019-04-09T03:45:43.469Z,925.65
2019-04-09T03:47:15.278Z,925.67
2019-04-09T03:48:48.868Z,925.67
2019-04-09T03:50:19.278Z,925.63
2019-04-09T03:51:51.609Z,925.59
2019-04-09T03:53:22.882Z,925.60
2019-04-09T03:54:55.423Z,925.57
2019-04-09T03:56:26.162Z,925.57
2019-04-09T03:57:57.976Z,925.58
2019-04-09T03:59:29.790Z,925.53
2019-04-09T04:01:01.716Z,925.52
2019-04-09T04:02:34.034Z,925.54
2019-04-09T04:04:06.052Z,925.51
2019-04-09T04:05:37.053Z,925.54
2019-04-09T04:07:08.880Z,925.52
2019-04-09T04:08:40.677Z,925.50
2019-04-09T04:10:13.335Z,925.47
2019-04-09T04:11:44.302Z,925.47
2019-04-09T04:13:16.117Z,925.45
2019-04-09T04:14:47.931Z,925.46
2019-04-09T04:16:19.855Z,925.48
2019-04-09T04:17:52.386Z,925.53
2019-04-09T04:19:23.612Z,925.53
2019-04-09T04:20:55.929Z,925.48
2019-04-09T04:22:27.041Z,925.46
2019-04-09T04:23:58.822Z,925.40
2019-04-09T04:25:30.700Z,925.41
2019-04-09T04:27:02.543Z,925.42
2019-04-09T04:28:37.595Z,925.36
2019-04-09T04:30:06.392Z,925.39
2019-04-09T04:31:37.919Z,925.40
2019-04-09T04:33:09.704Z,925.39
2019-04-09T04:34:41.515Z,925.41
2019-04-09T04:36:13.328Z,925.39
2019-04-09T04:37:45.236Z,925.39
2019-04-09T04:39:17.159Z,925.44
2019-04-09T04:40:49.668Z,925.40
2019-04-09T04:42:21.309Z,925.38
2019-04-09T04:43:52.398Z,925.36
2019-04-09T04:45:24.223Z,925.39
2019-04-09T04:46:56.959Z,925.33
2019-04-09T04:48:27.841Z,925.35
2019-04-09T04:50:00.151Z,925.37
2019-04-09T04:51:31.469Z,925.40
2019-04-09T04:53:03.283Z,925.36
2019-04-09T04:54:35.629Z,925.42
2019-04-09T04:56:07.775Z,925.44
2019-04-09T04:57:39.777Z,925.41
2019-04-09T04:59:11.651Z,925.36
2019-04-09T05:00:42.357Z,925.39
2019-04-09T05:02:15.816Z,925.37
2019-04-09T05:03:46.687Z,925.36
2019-04-09T05:05:18.354Z,925.33
2019-04-09T05:06:49.611Z,925.32
2019-04-09T05:08:21.579Z,925.35
2019-04-09T05:09:53.240Z,925.35
2019-04-09T05:11:25.054Z,925.36
2019-04-09T05:12:57.543Z,925.34
2019-04-09T05:14:29.644Z,925.30
2019-04-09T05:16:00.595Z,925.24
2019-04-09T05:17:32.309Z,925.23
2019-04-09T05:19:04.278Z,925.21
2019-04-09T05:20:35.938Z,925.17
2019-04-09T05:22:07.751Z,925.22
2019-04-09T05:23:39.566Z,925.20
2019-04-09T05:25:11.380Z,925.27
2019-04-09T05:26:44.061Z,925.19
2019-04-09T05:28:15.110Z,925.17
2019-04-09T05:29:46.823Z,925.24
2019-04-09T05:31:18.939Z,925.23
2019-04-09T05:32:50.451Z,925.23
2019-04-09T05:34:23.326Z,925.23
2019-04-09T05:35:54.084Z,925.19
2019-04-09T05:37:26.667Z,925.18
2019-04-09T05:38:57.865Z,925.17
2019-04-09T05:40:29.522Z,925.20
2019-04-09T05:42:01.336Z,925.22
2019-04-09T05:43:34.294Z,925.22
2019-04-09T05:45:05.542Z,925.20
2019-04-09T05:46:37.491Z,925.17
2019-04-09T05:48:09.469Z,925.20
2019-04-09T05:49:40.412Z,925.24
2019-04-09T05:51:12.222Z,925.24
2019-04-09T05:52:45.005Z,925.26
2019-04-09T05:54:15.849Z,925.28
2019-04-09T05:55:47.665Z,925.20
2019-04-09T05:57:20.036Z,925.19
2019-04-09T05:59:01.371Z,925.18
2019-04-09T06:00:23.981Z,925.21
2019-04-09T06:01:54.920Z,925.18
2019-04-09T06:03:27.651Z,925.22
2019-04-09T06:04:58.549Z,925.24
2019-04-09T06:06:30.367Z,925.20
2019-04-09T06:08:02.189Z,925.20
2019-04-09T06:09:34.003Z,925.19
2019-04-09T06:11:05.907Z,925.18
2019-04-09T06:12:38.612Z,925.23
2019-04-09T06:14:10.446Z,925.16
2019-04-09T06:15:41.386Z,925.19
2019-04-09T06:17:13.063Z,925.16
2019-04-09T06:18:44.876Z,925.15
2019-04-09T06:20:16.925Z,925.11
2019-04-09T06:21:48.505Z,925.13
2019-04-09T06:23:20.318Z,925.10
2019-04-09T06:24:52.132Z,925.13
2019-04-09T06:26:24.843Z,925.07
2019-04-09T06:27:55.760Z,925.02
2019-04-09T06:29:28.030Z,925.03
2019-04-09T06:31:00.055Z,925.02
2019-04-09T06:32:31.203Z,925.03
2019-04-09T06:34:03.017Z,925.01
2019-04-09T06:35:34.833Z,925.04
2019-04-09T06:37:06.645Z,925.04
2019-04-09T06:38:39.000Z,925.03
2019-04-09T06:40:10.412Z,925.04
2019-04-09T06:41:42.106Z,925.07
2019-04-09T06:43:14.923Z,925.03
2019-04-09T06:44:45.721Z,925.03
2019-04-09T06:46:17.907Z,925.05
2019-04-09T06:47:49.443Z,925.12
2019-04-09T06:49:22.090Z,925.11
2019-04-09T06:50:53.484Z,925.06
2019-04-09T06:52:24.788Z,925.08
2019-04-09T06:53:57.518Z,925.03
2019-04-09T06:55:29.092Z,924.98
2019-04-09T06:57:01.204Z,925.00
2019-04-09T06:58:32.043Z,924.97
2019-04-09T07:00:03.856Z,924.95
2019-04-09T07:01:35.669Z,924.89
2019-04-09T07:03:07.483Z,924.88
2019-04-09T07:04:39.730Z,924.94
2019-04-09T07:06:11.872Z,924.86
2019-04-09T07:07:42.937Z,924.88
2019-04-09T07:09:15.765Z,924.89
2019-04-09T07:10:46.701Z,924.90
2019-04-09T07:12:18.367Z,924.91
2019-04-09T07:13:50.180Z,924.90
2019-04-09T07:15:22.037Z,924.90
2019-04-09T07:16:54.038Z,924.90
2019-04-09T07:18:25.622Z,924.93
2019-04-09T07:19:57.437Z,924.91
2019-04-09T07:21:29.250Z,924.88
2019-04-09T07:23:01.582Z,924.90
2019-04-09T07:24:33.119Z,924.93
2019-04-09T07:26:05.301Z,924.95
2019-04-09T07:27:37.114Z,924.96
2019-04-09T07:29:08.333Z,924.96
2019-04-09T07:30:41.379Z,924.93
2019-04-09T07:32:13.014Z,924.97
2019-04-09T07:33:46.139Z,924.94
2019-04-09T07:35:15.575Z,925.04
2019-04-09T07:36:47.389Z,924.98
2019-04-09T07:38:19.202Z,925.06
2019-04-09T07:39:51.532Z,925.03
2019-04-09T07:41:23.832Z,925.05
2019-04-09T07:42:55.351Z,925.07
2019-04-09T07:44:29.641Z,925.06
2019-04-09T07:45:58.272Z,925.10
2019-04-09T07:47:31.660Z,925.09
2019-04-09T07:49:02.317Z,925.13
2019-04-09T07:50:33.715Z,925.13
2019-04-09T07:52:08.388Z,925.16
2019-04-09T07:53:37.351Z,925.14
2019-04-09T07:55:09.192Z,925.12
2019-04-09T07:56:40.997Z,925.16
2019-04-09T07:58:12.784Z,925.16
2019-04-09T07:59:58.316Z,925.15
2019-04-09T08:01:18.207Z,925.17
2019-04-09T08:02:49.514Z,925.16
2019-04-09T08:04:21.081Z,925.17
2019-04-09T08:05:52.018Z,925.25
2019-04-09T08:07:24.977Z,925.25
2019-04-09T08:08:55.478Z,925.23
2019-04-09T08:10:28.279Z,925.25
2019-04-09T08:11:59.107Z,925.26
2019-04-09T08:13:33.517Z,925.27
2019-04-09T08:15:04.104Z,925.22
2019-04-09T08:16:38.570Z,925.28
2019-04-09T08:18:13.543Z,925.25
2019-04-09T08:19:40.809Z,925.28
2019-04-09T08:21:10.448Z,925.29
2019-04-09T08:22:42.946Z,925.29
2019-04-09T08:24:13.635Z,925.32
2019-04-09T08:25:46.313Z,925.28
2019-04-09T08:27:17.247Z,925.31
2019-04-09T08:28:52.179Z,925.35
2019-04-09T08:30:25.179Z,925.36
2019-04-09T08:32:01.239Z,925.40
2019-04-09T08:33:24.503Z,925.40
2019-04-09T08:34:57.412Z,925.42
2019-04-09T08:36:28.428Z,925.45
2019-04-09T08:38:01.241Z,925.43
2019-04-09T08:39:36.264Z,925.43
2019-04-09T08:41:04.487Z,925.42
2019-04-09T08:42:35.385Z,925.43
2019-04-09T08:44:13.158Z,925.48
2019-04-09T08:45:39.012Z,925.44
2019-04-09T08:47:10.831Z,925.50
2019-04-09T08:48:43.791Z,925.46
2019-04-09T08:50:14.690Z,925.49
2019-04-09T08:51:46.515Z,925.51
2019-04-09T08:53:18.877Z,925.53
2019-04-09T08:54:54.157Z,925.53
2019-04-09T08:56:21.810Z,925.54
2019-04-09T08:57:54.425Z,925.59
2019-04-09T08:59:30.500Z,925.59
2019-04-09T09:01:29.610Z,925.58
2019-04-09T09:02:32.781Z,925.59
2019-04-09T09:04:06.685Z,925.62
2019-04-09T09:05:35.848Z,925.64
2019-04-09T09:07:05.175Z,925.63
2019-04-09T09:08:38.115Z,925.62
2019-04-09T09:10:08.036Z,925.65
2019-04-09T09:11:39.849Z,925.65
2019-04-09T09:13:16.162Z,925.67
2019-04-09T09:14:43.689Z,925.60
2019-04-09T09:16:15.368Z,925.60
2019-04-09T09:17:50.227Z,925.64
2019-04-09T09:19:18.921Z,925.65
2019-04-09T09:20:51.815Z,925.64
2019-04-09T09:22:22.826Z,925.68
2019-04-09T09:23:56.859Z,925.70
2019-04-09T09:25:30.879Z,925.67
2019-04-09T09:26:58.073Z,925.71
2019-04-09T09:28:29.828Z,925.74
2019-04-09T09:30:02.091Z,925.77
2019-04-09T09:31:35.247Z,925.74
2019-04-09T09:33:09.299Z,925.79
2019-04-09T09:34:37.085Z,925.82
2019-04-09T09:36:10.290Z,925.82
2019-04-09T09:37:45.660Z,925.84
2019-04-09T09:39:12.541Z,925.87
2019-04-09T09:40:45.671Z,925.84
2019-04-09T09:42:17.172Z,925.91
2019-04-09T09:43:49.957Z,925.91
2019-04-09T09:45:20.707Z,925.94
2019-04-09T09:46:54.458Z,925.94
2019-04-09T09:48:25.100Z,925.92
2019-04-09T09:49:55.202Z,925.92
2019-04-09T09:51:27.117Z,925.91
2019-04-09T09:53:01.467Z,925.96
2019-04-09T09:56:04.807Z,925.97
2019-04-09T09:57:34.320Z,926.03
2019-04-09T09:59:06.089Z,926.04
2019-04-09T10:00:38.217Z,926.11
2019-04-09T10:02:10.127Z,926.13
2019-04-09T10:03:46.109Z,926.14
2019-04-09T10:05:14.783Z,926.10
2019-04-09T10:06:49.114Z,926.12
2019-04-09T10:08:19.221Z,926.12
2019-04-09T10:09:48.981Z,926.13
2019-04-09T10:11:21.565Z,926.13
2019-04-09T10:12:54.400Z,926.20
2019-04-09T10:15:57.220Z,926.24
2019-04-09T10:19:08.516Z,926.28
2019-04-09T10:20:36.556Z,926.22
2019-04-09T10:22:04.506Z,926.23
2019-04-09T10:23:37.261Z,926.26
2019-04-09T10:25:07.737Z,926.31
2019-04-09T10:26:39.420Z,926.28
2019-04-09T10:28:10.699Z,926.29
2019-04-09T10:29:43.838Z,926.34
2019-04-09T10:31:24.544Z,926.36
2019-04-09T10:32:48.165Z,926.35
2019-04-09T10:34:21.579Z,926.39
2019-04-09T10:35:50.988Z,926.36
2019-04-09T10:37:24.398Z,926.38
2019-04-09T10:38:56.427Z,926.42
2019-04-09T10:40:25.718Z,926.44
2019-04-09T10:41:59.885Z,926.49
2019-04-09T10:43:28.829Z,926.54
2019-04-09T10:45:02.768Z,926.51
2019-04-09T10:46:35.620Z,926.50
2019-04-09T10:48:06.176Z,926.48
2019-04-09T10:49:37.576Z,926.53
2019-04-09T10:51:11.666Z,926.57
2019-04-09T10:52:39.628Z,926.62
2019-04-09T10:54:14.561Z,926.65
2019-04-09T10:55:44.016Z,926.66
2019-04-09T10:57:15.480Z,926.63
2019-04-09T10:58:51.521Z,926.73
2019-04-09T11:01:54.947Z,926.67
2019-04-09T11:03:23.406Z,926.66
2019-04-09T11:04:54.386Z,926.60
2019-04-09T11:06:28.090Z,926.68
2019-04-09T11:08:01.062Z,926.76
2019-04-09T11:09:30.632Z,926.80
2019-04-09T11:11:02.463Z,926.79
2019-04-09T11:12:33.318Z,926.81
2019-04-09T11:14:08.777Z,926.80
2019-04-09T11:15:36.872Z,926.89
2019-04-09T11:17:08.819Z,926.83
2019-04-09T11:18:45.934Z,926.81
2019-04-09T11:20:12.969Z,926.88
2019-04-09T11:21:44.561Z,926.87
2019-04-09T11:23:16.643Z,926.86
2019-04-09T11:26:19.740Z,926.88
2019-04-09T11:27:52.742Z,926.91
2019-04-09T11:29:23.510Z,926.93
2019-04-09T11:30:55.143Z,926.94
2019-04-09T11:32:27.679Z,927.00
2019-04-09T11:33:59.428Z,926.98
2019-04-09T11:35:30.574Z,927.04
2019-04-09T11:37:02.633Z,927.10
2019-04-09T11:38:35.458Z,927.04
2019-04-09T11:40:06.118Z,927.04
2019-04-09T11:41:37.839Z,927.05
2019-04-09T11:43:09.552Z,927.09
2019-04-09T11:44:42.785Z,927.05
2019-04-09T11:46:13.184Z,927.02
2019-04-09T11:47:45.520Z,926.98
2019-04-09T11:49:16.958Z,927.08
2019-04-09T11:50:48.970Z,927.12
2019-04-09T11:52:20.729Z,927.17
2019-04-09T11:53:52.373Z,927.15
2019-04-09T11:55:24.858Z,927.19
2019-04-09T11:56:56.109Z,927.22
2019-04-09T11:58:28.092Z,927.15
2019-04-09T12:00:00.200Z,927.25
2019-04-09T12:01:32.516Z,927.32
2019-04-09T12:03:03.258Z,927.33
2019-04-09T12:04:35.984Z,927.28
2019-04-09T12:06:07.098Z,927.45
2019-04-09T12:07:38.610Z,927.51
2019-04-09T12:09:11.002Z,927.52
2019-04-09T12:10:42.726Z,927.56
2019-04-09T12:12:14.290Z,927.60
2019-04-09T12:13:46.649Z,927.50
2019-04-09T12:15:18.410Z,927.33
2019-04-09T12:16:50.723Z,927.45
2019-04-09T12:18:21.937Z,927.58
2019-04-09T12:20:02.433Z,927.44
2019-04-09T12:21:25.195Z,927.37
2019-04-09T12:22:57.328Z,927.57
2019-04-09T12:24:29.202Z,927.68
2019-04-09T12:26:00.464Z,927.68
2019-04-09T12:27:32.688Z,927.76
2019-04-09T12:29:08.646Z,927.60
2019-04-09T12:30:35.880Z,927.70
2019-04-09T12:32:16.292Z,927.59
2019-04-09T12:33:40.320Z,927.71
2019-04-09T12:35:11.592Z,927.58
2019-04-09T12:36:43.391Z,927.54
2019-04-09T12:38:15.419Z,927.52
2019-04-09T12:39:46.857Z,927.52
2019-04-09T12:41:19.428Z,927.56
2019-04-09T12:42:50.493Z,927.57
2019-04-09T12:44:23.825Z,927.59
2019-04-09T12:45:55.361Z,927.55
2019-04-09T12:47:26.120Z,927.54
2019-04-09T12:48:57.690Z,927.59
2019-04-09T12:50:29.842Z,927.53
2019-04-09T12:52:01.731Z,927.45
2019-04-09T12:53:34.149Z,927.31
2019-04-09T12:55:06.530Z,927.35
2019-04-09T12:56:38.238Z,927.44
2019-04-09T12:58:08.605Z,927.48
2019-04-09T12:59:40.412Z,927.48
2019-04-09T13:01:12.255Z,927.47
2019-04-09T13:02:44.749Z,927.57
2019-04-09T13:04:15.844Z,927.63
2019-04-09T13:05:48.699Z,927.53
2019-04-09T13:07:19.520Z,927.52
2019-04-09T13:08:51.863Z,927.52
2019-04-09T13:10:23.326Z,927.54
2019-04-09T13:11:55.073Z,927.51
2019-04-09T13:13:26.884Z,927.54
2019-04-09T13:14:59.658Z,927.57
2019-04-09T13:16:30.406Z,927.49
2019-04-09T13:18:02.588Z,927.52
2019-04-09T13:19:34.024Z,927.73
2019-04-09T13:21:06.507Z,927.69
2019-04-09T13:22:37.641Z,927.85
2019-04-09T13:24:09.470Z,927.84
2019-04-09T13:25:41.377Z,927.96
2019-04-09T13:27:13.093Z,927.86
2019-04-09T13:28:45.949Z,927.82
2019-04-09T13:30:17.759Z,927.87
2019-04-09T13:31:48.792Z,927.91
2019-04-09T13:33:20.486Z,927.97
2019-04-09T13:34:52.177Z,927.82
2019-04-09T13:36:24.156Z,927.77
2019-04-09T13:37:55.810Z,927.67
2019-04-09T13:39:27.633Z,927.62
2019-04-09T13:40:59.863Z,927.75
2019-04-09T13:42:31.382Z,927.71
2019-04-09T13:44:03.314Z,927.68
2019-04-09T13:45:35.835Z,927.76
2019-04-09T13:47:06.766Z,927.60
2019-04-09T13:48:38.754Z,927.60
2019-04-09T13:50:10.974Z,927.63
2019-04-09T13:51:42.394Z,927.66
2019-04-09T13:53:14.234Z,927.69
2019-04-09T13:54:46.781Z,927.51
2019-04-09T13:56:18.949Z,927.48
2019-04-09T13:57:49.928Z,927.55
2019-04-09T13:59:21.425Z,927.62
2019-04-09T14:00:54.471Z,927.60
2019-04-09T14:02:25.501Z,927.61
2019-04-09T14:03:57.281Z,927.64
2019-04-09T14:05:28.570Z,927.63
2019-04-09T14:07:01.399Z,927.58
2019-04-09T14:08:33.065Z,927.59
2019-04-09T14:10:04.207Z,927.66
2019-04-09T14:11:36.669Z,927.69
2019-04-09T14:13:07.797Z,927.69
2019-04-09T14:14:40.648Z,927.71
2019-04-09T14:16:11.295Z,927.67
2019-04-09T14:17:43.304Z,927.63
2019-04-09T14:19:15.773Z,927.54
2019-04-09T14:20:47.653Z,927.60
2019-04-09T14:22:18.774Z,927.60
2019-04-09T14:23:50.815Z,927.54
2019-04-09T14:25:22.436Z,927.56
2019-04-09T14:26:55.311Z,927.55
2019-04-09T14:28:26.232Z,927.51
2019-04-09T14:29:58.171Z,927.40
2019-04-09T14:31:29.688Z,927.55
2019-04-09T14:33:06.866Z,927.47
2019-04-09T14:34:33.053Z,927.41
2019-04-09T14:36:05.876Z,927.41
2019-04-09T14:37:37.400Z,927.46
2019-04-09T14:39:08.843Z,927.38
2019-04-09T14:40:40.325Z,927.45
2019-04-09T14:42:13.014Z,927.44
2019-04-09T14:43:46.790Z,927.32
2019-04-09T14:45:15.929Z,927.10
2019-04-09T14:46:48.018Z,927.27
2019-04-09T14:48:19.468Z,927.37
2019-04-09T14:49:51.526Z,927.41
2019-04-09T14:51:23.362Z,927.32
2019-04-09T14:52:59.969Z,927.25
2019-04-09T14:54:27.819Z,927.19
2019-04-09T14:55:58.990Z,927.18
2019-04-09T14:57:31.000Z,927.31
2019-04-09T14:59:02.130Z,927.28
2019-04-09T15:00:34.688Z,927.29
2019-04-09T15:02:05.991Z,927.14
2019-04-09T15:03:38.301Z,927.14
2019-04-09T15:05:09.946Z,927.07
2019-04-09T15:06:41.215Z,927.06
2019-04-09T15:08:13.250Z,927.07
2019-04-09T15:09:44.926Z,927.15
2019-04-09T15:11:16.830Z,927.28
2019-04-09T15:12:48.704Z,927.12
2019-04-09T15:14:20.334Z,927.13
2019-04-09T15:15:52.578Z,927.29
2019-04-09T15:17:25.150Z,927.23
2019-04-09T15:18:56.488Z,927.00
2019-04-09T15:20:28.521Z,927.02
2019-04-09T15:21:59.858Z,926.98
2019-04-09T15:23:32.149Z,926.98
2019-04-09T15:25:03.099Z,926.93
2019-04-09T15:26:34.893Z,926.92
2019-04-09T15:28:07.071Z,926.83
2019-04-09T15:29:39.298Z,926.85
2019-04-09T15:31:10.701Z,926.85
2019-04-09T15:32:42.234Z,926.99
2019-04-09T15:34:13.932Z,927.02
2019-04-09T15:35:46.027Z,927.14
2019-04-09T15:37:17.809Z,927.16
2019-04-09T15:38:50.002Z,927.10
2019-04-09T15:40:21.602Z,926.98
2019-04-09T15:41:53.281Z,927.06
2019-04-09T15:43:25.337Z,927.23
2019-04-09T15:44:56.736Z,927.16
2019-04-09T15:46:29.214Z,927.11
2019-04-09T15:48:01.055Z,927.04
2019-04-09T15:49:32.403Z,927.11
2019-04-09T15:51:05.224Z,926.91
2019-04-09T15:52:36.635Z,926.89
2019-04-09T15:54:07.542Z,926.99
2019-04-09T15:55:39.521Z,926.94
2019-04-09T15:57:11.490Z,926.95
2019-04-09T15:58:43.772Z,926.96
2019-04-09T16:00:14.801Z,926.98
2019-04-09T16:01:46.838Z,927.00
2019-04-09T16:03:24.324Z,926.96
2019-04-09T16:04:50.683Z,927.00
2019-04-09T16:06:22.402Z,926.97
2019-04-09T16:07:55.476Z,926.95
2019-04-09T16:09:27.108Z,926.80
2019-04-09T16:10:57.676Z,926.75
2019-04-09T16:12:29.570Z,926.80
2019-04-09T16:14:02.084Z,926.71
2019-04-09T16:15:34.823Z,926.72
2019-04-09T16:17:05.073Z,926.67
2019-04-09T16:18:36.984Z,926.65
2019-04-09T16:20:08.725Z,926.71
2019-04-09T16:21:41.193Z,926.92
2019-04-09T16:23:13.131Z,926.94
2019-04-09T16:24:43.882Z,926.93
2019-04-09T16:26:16.922Z,926.80
2019-04-09T16:27:48.527Z,926.84
2019-04-09T16:29:22.091Z,926.90
2019-04-09T16:30:51.370Z,926.71
2019-04-09T16:32:23.886Z,926.61
2019-04-09T16:34:02.592Z,926.50
2019-04-09T16:35:26.707Z,926.44
2019-04-09T16:37:07.924Z,926.51
2019-04-09T16:38:31.145Z,926.48
2019-04-09T16:40:02.699Z,926.33
2019-04-09T16:41:34.293Z,926.36
2019-04-09T16:43:06.503Z,926.34
2019-04-09T16:44:50.944Z,926.43
2019-04-09T16:46:10.245Z,926.52
2019-04-09T16:47:42.736Z,926.52
2019-04-09T16:49:14.606Z,926.50
2019-04-09T16:50:45.910Z,926.52
2019-04-09T16:52:16.664Z,926.45
2019-04-09T16:53:49.360Z,926.45
2019-04-09T16:55:20.390Z,926.31
2019-04-09T16:56:52.854Z,926.64
2019-04-09T16:58:24.807Z,926.63
2019-04-09T16:59:55.828Z,926.87
2019-04-09T17:01:27.701Z,927.08
2019-04-09T17:02:59.723Z,926.94
2019-04-09T17:04:31.755Z,927.00
2019-04-09T17:06:02.925Z,927.30
2019-04-09T17:07:35.662Z,926.83
2019-04-09T17:09:21.415Z,926.79
2019-04-09T17:10:39.436Z,926.48
2019-04-09T17:12:13.280Z,926.34
2019-04-09T17:13:42.014Z,926.30
2019-04-09T17:15:13.846Z,926.42
2019-04-09T17:16:46.835Z,926.31
2019-04-09T17:18:17.467Z,926.31
2019-04-09T17:19:51.689Z,926.51
2019-04-09T17:21:21.372Z,926.55
2019-04-09T17:22:52.994Z,926.37
2019-04-09T17:24:24.904Z,926.30
2019-04-09T17:25:58.370Z,926.36
2019-04-09T17:27:28.393Z,926.27
2019-04-09T17:29:00.841Z,926.26
2019-04-09T17:30:34.149Z,926.26
2019-04-09T17:32:05.314Z,926.32
2019-04-09T17:33:36.333Z,926.18
2019-04-09T17:35:07.458Z,926.33
2019-04-09T17:36:40.436Z,926.39
2019-04-09T17:38:11.431Z,926.31
2019-04-09T17:39:43.830Z,926.28
2019-04-09T17:41:15.005Z,926.31
2019-04-09T17:42:47.075Z,926.34
2019-04-09T17:44:19.148Z,926.41
2019-04-09T17:45:50.723Z,926.36
2019-04-09T17:47:23.460Z,926.37
2019-04-09T17:48:54.258Z,926.41
2019-04-09T17:50:26.254Z,926.46
2019-04-09T17:51:57.629Z,926.51
2019-04-09T17:53:29.221Z,926.28
2019-04-09T17:55:01.080Z,926.30
2019-04-09T17:56:32.847Z,926.35
2019-04-09T17:58:05.054Z,926.36
2019-04-09T17:59:36.730Z,926.37
2019-04-09T18:01:09.103Z,926.31
2019-04-09T18:02:40.607Z,926.36
2019-04-09T18:04:12.314Z,926.40
2019-04-09T18:05:45.262Z,926.40
2019-04-09T18:07:16.074Z,926.44
2019-04-09T18:08:48.596Z,926.44
2019-04-09T18:10:20.221Z,926.39
2019-04-09T18:11:51.603Z,926.50
2019-04-09T18:13:23.323Z,926.55
2019-04-09T18:14:54.801Z,926.35
2019-04-09T18:16:27.275Z,926.37
2019-04-09T18:17:59.803Z,926.37
2019-04-09T18:19:30.826Z,926.39
2019-04-09T18:21:06.010Z,926.22
2019-04-09T18:22:35.601Z,926.24
2019-04-09T18:24:08.994Z,926.20
2019-04-09T18:25:38.154Z,926.26
2019-04-09T18:27:11.779Z,926.36
2019-04-09T18:28:41.330Z,926.39
2019-04-09T18:30:12.881Z,926.36
2019-04-09T18:31:45.107Z,926.37
2019-04-09T18:33:16.399Z,926.33
2019-04-09T18:34:53.454Z,926.28
2019-04-09T18:36:22.803Z,926.19
2019-04-09T18:37:52.636Z,926.20
2019-04-09T18:39:23.660Z,926.24
2019-04-09T18:40:58.657Z,926.12
2019-04-09T18:42:27.527Z,926.08
2019-04-09T18:44:00.226Z,926.15
2019-04-09T18:45:30.914Z,926.18
2019-04-09T18:47:03.276Z,926.16
2019-04-09T18:48:42.846Z,926.32
2019-04-09T18:50:06.562Z,926.28
2019-04-09T18:51:38.655Z,926.43
2019-04-09T18:53:10.991Z,926.37
2019-04-09T18:54:42.044Z,926.32
2019-04-09T18:56:13.608Z,926.32
2019-04-09T18:57:46.138Z,926.33
2019-04-09T18:59:17.236Z,926.35
2019-04-09T19:00:49.323Z,926.27
2019-04-09T19:02:20.965Z,926.32
2019-04-09T19:04:05.627Z,926.38
2019-04-09T19:05:24.513Z,926.47
2019-04-09T19:06:56.320Z,926.35
2019-04-09T19:08:28.409Z,926.40
2019-04-09T19:10:00.926Z,926.43
2019-04-09T19:11:31.974Z,926.40
2019-04-09T19:13:03.586Z,926.39